Time;durP1;ratioP1;P1;durP2;ratioP2;P2;SDS_P1;SDS_P2;PMS_P1;PMS_P2;Temp;Humidity;BMP_temperature;BMP_pressure;BME280_temperature;BME280_humidity;BME280_pressure;Samples;Min_cycle;Max_cycle;Signal;HPM_P1;HPM_P2
2021/08/13 00:02:07;;;;;;;15.30;10.10;;;19.00;97.90;;;;;;5038202;28;20101;-72
2021/08/13 00:04:33;;;;;;;16.33;9.70;;;19.00;98.00;;;;;;5037054;28;20334;-72
2021/08/13 00:07:02;;;;;;;17.92;10.20;;;19.00;97.90;;;;;;5040436;28;20025;-72
2021/08/13 00:09:27;;;;;;;15.57;9.13;;;18.90;97.80;;;;;;5057012;28;20029;-72
2021/08/13 00:11:54;;;;;;;16.50;10.27;;;18.80;97.90;;;;;;5055300;28;20454;-71
2021/08/13 00:14:20;;;;;;;15.50;10.13;;;18.80;98.00;;;;;;5041219;28;20079;-72
2021/08/13 00:16:45;;;;;;;15.65;10.73;;;18.90;98.00;;;;;;5037858;28;20092;-72
2021/08/13 00:19:11;;;;;;;16.67;10.35;;;18.90;98.00;;;;;;5056728;28;20029;-73
2021/08/13 00:21:37;;;;;;;19.92;11.73;;;18.90;97.90;;;;;;5055603;28;20311;-71
2021/08/13 00:24:03;;;;;;;16.17;9.85;;;18.80;97.90;;;;;;5056198;28;20032;-71
2021/08/13 00:26:28;;;;;;;15.45;9.75;;;18.80;97.90;;;;;;5056710;28;20112;-71
2021/08/13 00:28:55;;;;;;;19.55;10.02;;;18.80;98.00;;;;;;5037525;28;20025;-71
2021/08/13 00:31:21;;;;;;;14.82;9.27;;;18.90;98.00;;;;;;5036580;28;20049;-71
2021/08/13 00:33:46;;;;;;;16.77;9.95;;;19.00;98.00;;;;;;5051982;28;20068;-71
2021/08/13 00:36:12;;;;;;;17.05;10.35;;;19.00;97.90;;;;;;5056559;28;20090;-71
2021/08/13 00:38:38;;;;;;;15.25;9.85;;;19.00;98.00;;;;;;5054691;28;20103;-71
2021/08/13 00:41:04;;;;;;;14.77;9.68;;;18.90;97.80;;;;;;5056155;28;20418;-71
2021/08/13 00:43:30;;;;;;;14.85;9.73;;;18.90;97.80;;;;;;5047312;28;20375;-71
2021/08/13 00:45:55;;;;;;;16.80;10.02;;;18.70;97.90;;;;;;5056246;28;20036;-72
2021/08/13 00:48:21;;;;;;;16.73;10.32;;;18.70;97.80;;;;;;5054639;28;20037;-71
2021/08/13 00:50:47;;;;;;;15.25;9.38;;;18.60;97.90;;;;;;5056314;28;20490;-71
2021/08/13 00:53:13;;;;;;;12.82;8.60;;;18.60;98.00;;;;;;5054661;28;20028;-71
2021/08/13 00:55:43;;;;;;;14.60;9.40;;;18.70;98.00;;;;;;5056325;28;20021;-72
2021/08/13 00:58:09;;;;;;;15.48;9.88;;;18.70;97.90;;;;;;5047338;28;20037;-71
2021/08/13 01:00:36;;;;;;;14.63;8.73;;;18.80;98.00;;;;;;5035275;28;20113;-71
2021/08/13 01:03:03;;;;;;;14.68;8.95;;;19.00;97.80;;;;;;5041341;28;20032;-72
2021/08/13 01:05:29;;;;;;;16.55;9.23;;;19.10;97.50;;;;;;5050762;28;20032;-72
2021/08/13 01:07:55;;;;;;;13.13;9.25;;;19.10;97.40;;;;;;5055022;28;20025;-71
2021/08/13 01:10:24;;;;;;;12.82;8.95;;;19.10;97.50;;;;;;5052251;28;20108;-72
2021/08/13 01:12:55;;;;;;;12.50;8.40;;;19.10;97.40;;;;;;5034985;28;20752;-72
2021/08/13 01:15:22;;;;;;;32.67;9.80;;;19.00;97.50;;;;;;5037917;28;20044;-71
2021/08/13 01:18:01;;;;;;;15.00;8.82;;;18.90;97.60;;;;;;5055656;28;20082;-71
2021/08/13 01:21:04;;;;;;;15.07;7.85;;;18.80;97.70;;;;;;5051959;28;20024;-71
2021/08/13 01:23:36;;;;;;;13.32;8.27;;;18.70;97.70;;;;;;5036066;28;20418;-72
2021/08/13 01:26:04;;;;;;;14.65;7.70;;;18.70;97.70;;;;;;5041882;28;20064;-72
2021/08/13 01:28:46;;;;;;;13.80;8.23;;;18.80;97.60;;;;;;5047741;28;20104;-72
2021/08/13 01:31:28;;;;;;;13.90;8.23;;;18.80;97.40;;;;;;5035855;28;20112;-72
2021/08/13 01:34:04;;;;;;;13.77;8.43;;;18.80;97.50;;;;;;5036236;28;20049;-72
2021/08/13 01:36:31;;;;;;;11.38;7.95;;;18.80;97.70;;;;;;5035753;28;20025;-72
2021/08/13 01:39:02;;;;;;;13.93;8.20;;;18.80;97.50;;;;;;5035914;28;20402;-72
2021/08/13 01:41:34;;;;;;;14.48;8.75;;;18.70;97.50;;;;;;5055814;28;20026;-72
2021/08/13 01:44:02;;;;;;;14.25;8.10;;;18.70;97.50;;;;;;5054186;28;20024;-72
2021/08/13 01:46:30;;;;;;;13.63;9.13;;;18.70;97.50;;;;;;5035747;28;20065;-72
2021/08/13 01:48:57;;;;;;;12.93;8.13;;;18.60;97.60;;;;;;5035665;28;20025;-72
2021/08/13 01:51:24;;;;;;;11.30;7.82;;;18.70;97.50;;;;;;5054544;28;20021;-72
2021/08/13 01:53:50;;;;;;;15.20;8.70;;;18.70;97.50;;;;;;5042330;28;20303;-72
2021/08/13 01:56:17;;;;;;;12.63;8.15;;;18.70;97.20;;;;;;5052881;28;20029;-72
2021/08/13 01:58:44;;;;;;;15.77;7.95;;;18.70;97.10;;;;;;5050208;28;20032;-71
2021/08/13 02:01:10;;;;;;;17.35;8.82;;;18.80;96.90;;;;;;5035667;28;20456;-72
2021/08/13 02:03:38;;;;;;;12.85;8.60;;;18.80;97.00;;;;;;5035318;28;20406;-72
2021/08/13 02:06:05;;;;;;;13.57;8.68;;;18.70;97.40;;;;;;5052891;28;20021;-72
2021/08/13 02:08:32;;;;;;;16.02;8.35;;;18.50;97.70;;;;;;5054467;28;20025;-72
2021/08/13 02:10:58;;;;;;;13.15;8.48;;;18.50;97.70;;;;;;5035510;28;20159;-72
2021/08/13 02:13:25;;;;;;;12.35;8.02;;;18.40;97.70;;;;;;5034386;28;20041;-72
2021/08/13 02:16:11;;;;;;;13.30;9.00;;;18.40;97.70;;;;;;5054436;28;20026;-72
2021/08/13 02:18:42;;;;;;;13.32;8.63;;;18.40;97.70;;;;;;5054014;28;20421;-72
2021/08/13 02:21:12;;;;;;;15.48;8.82;;;18.30;97.80;;;;;;5038239;28;20104;-72
2021/08/13 02:23:37;;;;;;;14.18;7.55;;;18.30;97.80;;;;;;5039116;28;20028;-72
2021/08/13 02:26:10;;;;;;;18.45;9.13;;;18.30;97.70;;;;;;5058499;28;20025;-72
2021/08/13 02:28:35;;;;;;;14.80;8.25;;;18.30;97.80;;;;;;5057661;28;20028;-71
2021/08/13 02:31:01;;;;;;;13.23;8.52;;;18.30;97.90;;;;;;5039181;28;20328;-71
2021/08/13 02:33:27;;;;;;;14.63;8.50;;;18.40;97.80;;;;;;5037952;28;20033;-72
2021/08/13 02:35:59;;;;;;;13.18;8.48;;;18.40;97.80;;;;;;5039773;28;20372;-72
2021/08/13 02:38:31;;;;;;;13.45;8.70;;;18.40;97.90;;;;;;5038709;28;20033;-72
2021/08/13 02:41:05;;;;;;;14.02;8.25;;;18.40;97.90;;;;;;5056102;28;20087;-72
2021/08/13 02:43:37;;;;;;;17.50;8.93;;;18.50;97.80;;;;;;5057619;28;20017;-72
2021/08/13 02:46:04;;;;;;;15.55;7.90;;;18.50;97.90;;;;;;5039697;28;20064;-71
2021/08/13 02:48:35;;;;;;;15.75;8.98;;;18.50;97.80;;;;;;5054285;28;20040;-72
2021/08/13 02:51:03;;;;;;;13.77;8.60;;;18.50;97.90;;;;;;5056500;28;20025;-72
2021/08/13 02:53:30;;;;;;;13.68;9.27;;;18.50;97.80;;;;;;5044079;28;20029;-72
2021/08/13 02:56:02;;;;;;;17.65;8.93;;;18.40;97.90;;;;;;5058528;28;20040;-72
2021/08/13 02:58:42;;;;;;;12.85;8.63;;;18.40;97.90;;;;;;5051299;28;20124;-72
2021/08/13 03:01:11;;;;;;;13.18;8.60;;;18.40;97.90;;;;;;5038560;28;20026;-72
2021/08/13 03:03:37;;;;;;;13.98;8.73;;;18.30;97.90;;;;;;5050979;28;20116;-71
2021/08/13 03:06:04;;;;;;;12.88;8.38;;;18.30;98.00;;;;;;5058084;28;20104;-72
2021/08/13 03:08:32;;;;;;;13.98;8.60;;;18.30;98.00;;;;;;5046954;28;20026;-71
2021/08/13 03:10:59;;;;;;;14.02;8.98;;;18.30;98.00;;;;;;5038706;28;20028;-72
2021/08/13 03:13:25;;;;;;;14.68;8.70;;;18.30;98.00;;;;;;5046418;28;20040;-72
2021/08/13 03:15:52;;;;;;;14.35;8.57;;;18.40;98.00;;;;;;5058152;28;20060;-72
2021/08/13 03:18:19;;;;;;;12.75;8.40;;;18.50;98.00;;;;;;5049413;28;20330;-72
2021/08/13 03:20:45;;;;;;;13.70;8.52;;;18.60;97.90;;;;;;5037965;28;20364;-72
2021/08/13 03:23:11;;;;;;;16.25;8.80;;;18.60;97.80;;;;;;5039025;28;20112;-71
2021/08/13 03:25:38;;;;;;;12.63;8.43;;;18.70;97.80;;;;;;5037916;28;20104;-71
2021/08/13 03:28:07;;;;;;;14.55;8.25;;;18.80;97.70;;;;;;5041352;28;20413;-72
2021/08/13 03:30:45;;;;;;;12.88;7.88;;;18.80;97.70;;;;;;5057712;28;20029;-72
2021/08/13 03:33:13;;;;;;;10.82;7.68;;;18.80;97.70;;;;;;5051429;28;20103;-72
2021/08/13 03:35:40;;;;;;;13.02;8.07;;;18.90;97.60;;;;;;5037523;28;20033;-71
2021/08/13 03:38:06;;;;;;;12.15;8.15;;;18.80;97.70;;;;;;5042994;28;20025;-72
2021/08/13 03:40:32;;;;;;;12.90;7.63;;;18.90;97.70;;;;;;5037719;28;20109;-72
2021/08/13 03:42:58;;;;;;;14.18;7.43;;;19.10;97.30;;;;;;5038155;28;20032;-71
2021/08/13 03:45:24;;;;;;;12.68;7.93;;;19.30;97.00;;;;;;5056493;28;20025;-72
2021/08/13 03:47:49;;;;;;;12.40;7.80;;;19.50;96.50;;;;;;5057178;28;20107;-72
2021/08/13 03:50:15;;;;;;;13.98;7.78;;;19.70;96.10;;;;;;5037403;28;20059;-71
2021/08/13 03:52:41;;;;;;;13.02;7.03;;;19.90;95.80;;;;;;5037481;28;20025;-71
2021/08/13 03:55:07;;;;;;;11.80;7.45;;;20.10;95.40;;;;;;5055449;28;20468;-71
2021/08/13 03:57:33;;;;;;;15.27;7.25;;;20.10;95.50;;;;;;5056084;28;20021;-71
2021/08/13 04:00:01;;;;;;;12.05;7.50;;;20.00;95.50;;;;;;5040582;28;20037;-71
2021/08/13 04:02:26;;;;;;;12.48;7.55;;;20.10;95.50;;;;;;5037781;28;20113;-72
2021/08/13 04:04:55;;;;;;;11.73;7.63;;;20.00;95.90;;;;;;5037144;28;20430;-71
2021/08/13 04:07:20;;;;;;;12.38;7.05;;;19.90;96.30;;;;;;5043059;28;20021;-71
2021/08/13 04:09:46;;;;;;;11.27;7.35;;;19.80;96.60;;;;;;5057038;28;20028;-71
2021/08/13 04:12:11;;;;;;;12.68;7.63;;;19.80;96.60;;;;;;5048886;28;20303;-71
2021/08/13 04:14:37;;;;;;;12.88;7.32;;;19.80;96.60;;;;;;5035816;28;20029;-71
2021/08/13 04:17:03;;;;;;;12.20;7.28;;;19.80;96.80;;;;;;5042794;28;20041;-71
2021/08/13 04:19:29;;;;;;;11.73;7.07;;;19.80;96.70;;;;;;5056654;28;20031;-71
2021/08/13 04:21:54;;;;;;;13.60;7.07;;;19.90;96.60;;;;;;5052599;28;20018;-72
2021/08/13 04:24:20;;;;;;;10.93;7.05;;;20.00;96.60;;;;;;5036911;28;20033;-72
2021/08/13 04:26:45;;;;;;;10.00;6.45;;;20.00;96.60;;;;;;5037836;28;20025;-72
2021/08/13 04:29:11;;;;;;;13.20;6.93;;;19.90;96.80;;;;;;5035585;28;20096;-72
2021/08/13 04:31:43;;;;;;;16.48;7.70;;;19.90;96.70;;;;;;5036774;28;20057;-72
2021/08/13 04:34:08;;;;;;;12.68;7.40;;;19.90;96.90;;;;;;5055345;28;20386;-71
2021/08/13 04:36:34;;;;;;;11.00;7.03;;;19.80;97.00;;;;;;5056088;28;20108;-72
2021/08/13 04:38:59;;;;;;;9.10;6.40;;;19.70;97.10;;;;;;5055521;28;20079;-71
2021/08/13 04:41:25;;;;;;;11.63;6.90;;;19.70;97.00;;;;;;5055446;28;20036;-72
2021/08/13 04:43:51;;;;;;;10.27;6.60;;;19.70;96.90;;;;;;5037311;28;20034;-72
2021/08/13 04:46:16;;;;;;;10.60;6.43;;;19.80;96.70;;;;;;5036252;28;20039;-72
2021/08/13 04:48:42;;;;;;;11.68;6.60;;;19.80;96.70;;;;;;5051744;28;20043;-72
2021/08/13 04:51:07;;;;;;;9.18;6.10;;;19.80;96.50;;;;;;5056023;28;20059;-72
2021/08/13 04:53:33;;;;;;;12.10;6.80;;;19.80;96.40;;;;;;5054639;28;20029;-72
2021/08/13 04:55:59;;;;;;;10.45;6.55;;;19.70;96.90;;;;;;5056222;28;20059;-72
2021/08/13 04:58:24;;;;;;;9.88;6.10;;;19.60;97.10;;;;;;5042883;28;20330;-72
2021/08/13 05:00:50;;;;;;;13.43;5.88;;;19.50;97.00;;;;;;5036180;28;20018;-72
2021/08/13 05:03:16;;;;;;;10.85;5.85;;;19.50;97.10;;;;;;5044720;28;20033;-72
2021/08/13 05:05:42;;;;;;;8.63;5.00;;;19.50;96.70;;;;;;5055959;28;20028;-72
2021/08/13 05:08:08;;;;;;;10.65;5.43;;;19.60;96.80;;;;;;5041982;28;20109;-72
2021/08/13 05:10:34;;;;;;;14.60;4.70;;;19.60;96.00;;;;;;5036151;28;20160;-72
2021/08/13 05:12:59;;;;;;;8.30;4.70;;;19.70;95.60;;;;;;5040989;28;20060;-72
2021/08/13 05:15:25;;;;;;;10.18;4.53;;;19.80;96.00;;;;;;5055893;28;20491;-72
2021/08/13 05:17:51;;;;;;;10.25;4.10;;;20.00;94.80;;;;;;5054294;28;20066;-72
2021/08/13 05:20:17;;;;;;;8.88;4.72;;;20.20;93.30;;;;;;5055824;28;20048;-72
2021/08/13 05:22:43;;;;;;;9.73;4.18;;;20.30;93.80;;;;;;5053150;28;20438;-72
2021/08/13 05:25:11;;;;;;;10.20;4.32;;;20.40;94.00;;;;;;5036015;28;20035;-72
2021/08/13 05:27:40;;;;;;;9.30;3.90;;;20.40;93.40;;;;;;5035589;28;20108;-72
2021/08/13 05:30:07;;;;;;;8.07;3.67;;;20.40;92.80;;;;;;5055877;28;20022;-72
2021/08/13 05:32:37;;;;;;;7.57;3.50;;;20.50;90.80;;;;;;5049940;28;20105;-72
2021/08/13 05:35:02;;;;;;;7.93;4.18;;;20.60;91.10;;;;;;5035663;28;20091;-72
2021/08/13 05:37:28;;;;;;;8.65;4.22;;;20.70;92.40;;;;;;5043449;28;20028;-72
2021/08/13 05:39:54;;;;;;;9.75;4.25;;;20.60;93.00;;;;;;5055338;28;20065;-72
2021/08/13 05:42:19;;;;;;;8.20;4.10;;;20.60;92.70;;;;;;5053152;28;20033;-72
2021/08/13 05:44:45;;;;;;;8.00;3.75;;;20.60;92.30;;;;;;5034503;28;20056;-72
2021/08/13 05:47:11;;;;;;;7.38;3.40;;;20.70;92.20;;;;;;5050401;28;20478;-72
2021/08/13 05:49:37;;;;;;;7.43;4.10;;;20.80;91.00;;;;;;5055829;28;20432;-72
2021/08/13 05:52:03;;;;;;;8.07;3.60;;;21.00;91.50;;;;;;5042088;28;20108;-72
2021/08/13 05:54:30;;;;;;;7.53;3.58;;;21.20;90.60;;;;;;5036032;28;20025;-72
2021/08/13 05:56:57;;;;;;;9.52;4.28;;;21.20;90.80;;;;;;5051046;28;20068;-72
2021/08/13 05:59:22;;;;;;;12.63;4.63;;;21.20;91.20;;;;;;5058169;28;20407;-72
2021/08/13 06:01:48;;;;;;;8.85;4.05;;;21.20;91.90;;;;;;5049964;28;20057;-72
2021/08/13 06:04:13;;;;;;;11.23;4.38;;;21.30;91.50;;;;;;5044130;28;20100;-72
2021/08/13 06:06:42;;;;;;;6.90;3.45;;;21.40;91.00;;;;;;5043968;28;20097;-72
2021/08/13 06:09:08;;;;;;;7.68;3.78;;;21.50;90.10;;;;;;5059309;28;20033;-72
2021/08/13 06:11:34;;;;;;;8.07;3.72;;;21.60;90.10;;;;;;5059147;28;20021;-72
2021/08/13 06:13:59;;;;;;;8.73;3.92;;;21.70;90.50;;;;;;5058017;28;20302;-72
2021/08/13 06:16:25;;;;;;;8.07;3.75;;;21.80;89.80;;;;;;5059132;28;20028;-72
2021/08/13 06:18:51;;;;;;;10.18;4.10;;;21.90;88.80;;;;;;5059097;28;20028;-72
2021/08/13 06:21:16;;;;;;;8.30;3.97;;;22.10;88.40;;;;;;5042876;28;20052;-72
2021/08/13 06:23:42;;;;;;;7.63;3.78;;;22.30;89.80;;;;;;5058977;28;20302;-72
2021/08/13 06:26:09;;;;;;;7.75;3.42;;;22.40;90.20;;;;;;5049178;28;20092;-72
2021/08/13 06:28:38;;;;;;;6.25;3.20;;;22.60;89.30;;;;;;5039770;28;20033;-72
2021/08/13 06:31:03;;;;;;;7.50;3.63;;;22.90;85.40;;;;;;5048080;28;20065;-72
2021/08/13 06:33:29;;;;;;;8.65;3.67;;;23.10;83.90;;;;;;5038987;28;22081;-72
2021/08/13 06:35:55;;;;;;;8.82;3.78;;;23.30;87.60;;;;;;5038655;28;20322;-72
2021/08/13 06:38:20;;;;;;;6.32;3.42;;;23.30;90.00;;;;;;5038874;28;20132;-72
2021/08/13 06:40:46;;;;;;;9.30;3.35;;;23.20;89.50;;;;;;5044735;28;20061;-71
2021/08/13 06:43:12;;;;;;;7.97;3.47;;;23.40;86.50;;;;;;5037587;28;20359;-71
2021/08/13 06:45:38;;;;;;;6.93;3.50;;;23.50;86.60;;;;;;5057209;28;20029;-72
2021/08/13 06:48:04;;;;;;;8.20;3.90;;;23.60;87.90;;;;;;5058618;28;20017;-72
2021/08/13 06:50:29;;;;;;;9.23;3.70;;;23.70;89.40;;;;;;5040151;28;20044;-72
2021/08/13 06:52:55;;;;;;;10.77;5.22;;;23.70;89.40;;;;;;5038401;28;20017;-71
2021/08/13 06:55:21;;;;;;;14.15;5.40;;;23.70;87.30;;;;;;5054699;28;20036;-71
2021/08/13 06:57:47;;;;;;;9.80;5.18;;;23.70;87.20;;;;;;5048668;28;20395;-71
2021/08/13 07:00:13;;;;;;;13.60;6.05;;;23.70;86.70;;;;;;5056310;28;20032;-71
2021/08/13 07:02:40;;;;;;;12.38;6.00;;;23.80;87.10;;;;;;5038560;28;20283;-71
2021/08/13 07:05:10;;;;;;;10.50;6.43;;;23.90;87.90;;;;;;5038274;28;20025;-71
2021/08/13 07:07:35;;;;;;;10.13;6.07;;;23.90;87.60;;;;;;5040752;28;20029;-71
2021/08/13 07:10:06;;;;;;;11.55;7.00;;;23.90;88.00;;;;;;5057803;28;20318;-71
2021/08/13 07:12:32;;;;;;;10.00;6.00;;;23.90;87.80;;;;;;5039834;28;20322;-72
2021/08/13 07:14:57;;;;;;;11.57;5.57;;;24.10;86.50;;;;;;5038241;28;20026;-72
2021/08/13 07:17:23;;;;;;;10.20;5.65;;;24.40;85.10;;;;;;5043794;28;20552;-72
2021/08/13 07:19:49;;;;;;;9.93;6.00;;;24.70;85.50;;;;;;5048001;28;20029;-73
2021/08/13 07:22:14;;;;;;;11.02;6.25;;;24.70;85.50;;;;;;5046752;28;20053;-72
2021/08/13 07:24:40;;;;;;;11.27;6.30;;;24.90;84.90;;;;;;5042852;28;20044;-72
2021/08/13 07:27:06;;;;;;;9.68;5.65;;;24.90;83.70;;;;;;5043176;28;20086;-73
2021/08/13 07:29:32;;;;;;;10.80;5.75;;;25.00;83.70;;;;;;5037651;28;20071;-72
2021/08/13 07:31:58;;;;;;;9.38;5.38;;;25.10;83.60;;;;;;5040292;28;20048;-72
2021/08/13 07:34:23;;;;;;;9.70;5.25;;;25.20;83.30;;;;;;5044630;28;20072;-72
2021/08/13 07:36:49;;;;;;;11.35;5.05;;;25.50;81.10;;;;;;5045265;28;21329;-72
2021/08/13 07:39:15;;;;;;;10.15;5.43;;;25.80;80.00;;;;;;5039140;28;20442;-72
2021/08/13 07:41:40;;;;;;;7.95;4.63;;;26.00;80.00;;;;;;5037419;28;20386;-72
2021/08/13 07:44:06;;;;;;;9.43;4.40;;;26.00;77.10;;;;;;5053179;28;20017;-72
2021/08/13 07:46:32;;;;;;;9.85;4.57;;;25.90;77.30;;;;;;5057512;28;20029;-72
2021/08/13 07:48:57;;;;;;;12.40;4.35;;;25.80;77.20;;;;;;5055244;28;20029;-71
2021/08/13 07:51:23;;;;;;;8.75;4.10;;;26.10;77.00;;;;;;5047338;28;20026;-72
2021/08/13 07:53:48;;;;;;;7.88;4.10;;;26.80;76.20;;;;;;5037917;28;20064;-72
2021/08/13 07:56:14;;;;;;;9.25;4.22;;;27.80;73.70;;;;;;5044924;28;20081;-73
2021/08/13 07:58:40;;;;;;;10.40;4.15;;;28.60;71.40;;;;;;5044085;28;20180;-70
2021/08/13 08:01:11;;;;;;;7.95;3.80;;;28.60;70.40;;;;;;5055248;28;20013;-72
2021/08/13 08:03:37;;;;;;;8.55;4.03;;;28.80;72.50;;;;;;5037298;28;20478;-72
2021/08/13 08:06:05;;;;;;;8.77;4.15;;;29.20;71.40;;;;;;5039004;28;20114;-72
2021/08/13 08:08:31;;;;;;;13.68;4.63;;;29.80;70.10;;;;;;5044285;28;20040;-72
2021/08/13 08:10:57;;;;;;;8.75;4.47;;;29.90;69.80;;;;;;5041056;28;20029;-72
2021/08/13 08:13:22;;;;;;;8.75;4.50;;;30.90;67.40;;;;;;5036049;28;20299;-72
2021/08/13 08:15:48;;;;;;;16.05;4.88;;;30.80;68.00;;;;;;5037104;28;20035;-72
2021/08/13 08:18:14;;;;;;;10.98;4.72;;;30.60;69.40;;;;;;5036365;28;20032;-72
2021/08/13 08:20:40;;;;;;;12.02;4.50;;;31.20;68.90;;;;;;5036885;28;20021;-72
2021/08/13 08:23:06;;;;;;;13.23;5.00;;;31.00;66.60;;;;;;5036851;28;20053;-72
2021/08/13 08:25:32;;;;;;;10.45;4.35;;;30.50;69.20;;;;;;5036794;28;20022;-72
2021/08/13 08:27:59;;;;;;;7.82;4.18;;;30.50;69.10;;;;;;5035727;28;20022;-72
2021/08/13 08:30:25;;;;;;;8.40;3.63;;;30.70;68.20;;;;;;5036684;28;20025;-72
2021/08/13 08:32:51;;;;;;;7.40;4.13;;;31.00;67.30;;;;;;5052845;28;20071;-72
2021/08/13 08:35:16;;;;;;;5.82;3.65;;;31.20;67.80;;;;;;5056368;28;20041;-72
2021/08/13 08:37:50;;;;;;;11.65;4.65;;;31.70;66.30;;;;;;5054643;28;20119;-72
2021/08/13 08:40:28;;;;;;;13.13;4.15;;;31.40;67.80;;;;;;5056426;28;20426;-72
2021/08/13 08:42:56;;;;;;;7.47;3.33;;;31.40;66.30;;;;;;5055284;28;20025;-72
2021/08/13 08:45:24;;;;;;;9.07;3.63;;;31.40;66.80;;;;;;5056425;28;20025;-72
2021/08/13 08:47:50;;;;;;;8.35;4.20;;;31.40;65.80;;;;;;5056509;28;20029;-72
2021/08/13 08:50:16;;;;;;;8.75;3.63;;;31.10;67.10;;;;;;5056189;28;20036;-72
2021/08/13 08:52:44;;;;;;;11.50;4.32;;;30.40;67.50;;;;;;5056198;28;20108;-71
2021/08/13 08:55:10;;;;;;;10.55;4.20;;;29.30;70.00;;;;;;5056155;28;20017;-71
2021/08/13 08:57:40;;;;;;;11.57;4.85;;;28.50;72.80;;;;;;5054966;28;20036;-71
2021/08/13 09:00:08;;;;;;;11.82;4.45;;;28.20;73.20;;;;;;5056206;28;20398;-72
2021/08/13 09:02:34;;;;;;;8.82;3.80;;;28.30;72.70;;;;;;5053497;28;20056;-72
2021/08/13 09:05:00;;;;;;;11.70;4.22;;;28.00;73.50;;;;;;5055557;28;20126;-72
2021/08/13 09:07:27;;;;;;;22.15;5.05;;;27.90;73.10;;;;;;5056150;28;20036;-72
2021/08/13 09:09:53;;;;;;;9.68;4.53;;;28.00;74.00;;;;;;5055841;28;20405;-72
2021/08/13 09:12:20;;;;;;;10.63;4.45;;;28.00;74.10;;;;;;5056174;28;20032;-72
2021/08/13 09:14:45;;;;;;;9.60;4.68;;;28.10;73.70;;;;;;5054853;28;20111;-72
2021/08/13 09:17:11;;;;;;;12.00;4.47;;;27.80;74.80;;;;;;5056015;28;20150;-72
2021/08/13 09:19:39;;;;;;;13.52;5.63;;;27.80;74.50;;;;;;5055655;28;20032;-72
2021/08/13 09:22:24;;;;;;;11.18;4.22;;;27.80;75.30;;;;;;5055943;28;20124;-72
2021/08/13 09:24:55;;;;;;;9.13;4.22;;;27.80;74.90;;;;;;5055717;28;20096;-72
2021/08/13 09:27:27;;;;;;;10.98;4.03;;;27.70;75.50;;;;;;5055587;28;20056;-72
2021/08/13 09:30:25;;;;;;;11.93;4.40;;;28.10;75.20;;;;;;5056579;28;20106;-71
2021/08/13 09:33:00;;;;;;;10.15;4.68;;;29.70;71.10;;;;;;5048769;28;20076;-72
2021/08/13 09:35:36;;;;;;;9.95;4.28;;;30.30;70.50;;;;;;5043949;28;20037;-72
2021/08/13 09:38:09;;;;;;;9.63;4.30;;;30.10;69.90;;;;;;5059483;28;20033;-72
2021/08/13 09:40:43;;;;;;;10.35;4.60;;;29.30;72.80;;;;;;5058058;28;20033;-72
2021/08/13 09:43:09;;;;;;;8.85;4.57;;;29.60;72.00;;;;;;5057324;28;20062;-72
2021/08/13 09:45:37;;;;;;;9.07;4.10;;;30.40;70.50;;;;;;5039980;28;20108;-72
2021/08/13 09:48:03;;;;;;;10.63;4.07;;;30.80;69.50;;;;;;5039645;28;20022;-71
2021/08/13 09:50:40;;;;;;;9.45;4.10;;;31.30;69.00;;;;;;5058235;28;20028;-72
2021/08/13 09:53:14;;;;;;;10.48;4.63;;;31.10;68.20;;;;;;5050666;28;20052;-72
2021/08/13 09:55:44;;;;;;;8.98;4.05;;;31.60;68.80;;;;;;5058649;28;20029;-71
2021/08/13 09:58:11;;;;;;;10.00;4.07;;;32.80;66.00;;;;;;5056880;28;20413;-72
2021/08/13 10:00:47;;;;;;;12.35;5.30;;;31.80;67.20;;;;;;5058363;28;20658;-72
2021/08/13 10:03:15;;;;;;;9.20;5.13;;;30.70;68.40;;;;;;5057768;28;20454;-71
2021/08/13 10:05:41;;;;;;;7.85;4.20;;;30.70;69.00;;;;;;5039404;28;20027;-72
2021/08/13 10:08:07;;;;;;;8.52;4.40;;;31.50;67.70;;;;;;5038233;28;20021;-72
2021/08/13 10:10:38;;;;;;;9.18;4.70;;;32.20;67.60;;;;;;5050174;28;20032;-71
2021/08/13 10:13:07;;;;;;;9.20;4.88;;;31.90;67.70;;;;;;5058157;28;20028;-72
2021/08/13 10:15:39;;;;;;;12.90;4.95;;;31.60;68.00;;;;;;5042251;28;20018;-72
2021/08/13 10:18:10;;;;;;;11.60;5.45;;;31.40;68.30;;;;;;5045251;28;20021;-72
2021/08/13 10:20:38;;;;;;;9.25;4.50;;;31.30;68.10;;;;;;5057778;28;20406;-71
2021/08/13 10:23:04;;;;;;;9.43;4.55;;;31.50;68.90;;;;;;5044261;28;20670;-71
2021/08/13 10:25:30;;;;;;;11.95;5.40;;;32.10;67.20;;;;;;5039070;28;20030;-72
2021/08/13 10:27:56;;;;;;;10.68;5.25;;;31.80;66.40;;;;;;5038821;28;20458;-71
2021/08/13 10:30:23;;;;;;;11.23;5.05;;;31.60;67.90;;;;;;5038692;28;20028;-72
2021/08/13 10:32:51;;;;;;;13.60;4.43;;;31.90;67.50;;;;;;5051355;28;20028;-72
2021/08/13 10:35:18;;;;;;;11.02;5.10;;;32.30;66.00;;;;;;5058622;28;20075;-72
2021/08/13 10:37:44;;;;;;;9.98;4.72;;;32.50;65.80;;;;;;5058062;28;20033;-71
2021/08/13 10:40:11;;;;;;;10.95;5.13;;;32.70;65.80;;;;;;5054732;28;20029;-71
2021/08/13 10:42:43;;;;;;;10.98;5.25;;;32.20;66.00;;;;;;5045419;28;20112;-71
2021/08/13 10:45:13;;;;;;;10.55;4.75;;;31.60;67.40;;;;;;5039869;28;20022;-71
2021/08/13 10:47:57;;;;;;;12.00;5.88;;;31.40;67.40;;;;;;5053894;28;20021;-71
2021/08/13 10:50:24;;;;;;;10.25;5.13;;;31.40;68.70;;;;;;5040464;28;20025;-72
2021/08/13 10:52:50;;;;;;;10.68;4.85;;;31.70;67.20;;;;;;5058377;28;20083;-71
2021/08/13 10:55:41;;;;;;;9.05;5.10;;;31.70;67.50;;;;;;5057490;28;20025;-72
2021/08/13 10:58:08;;;;;;;14.18;4.93;;;31.70;68.10;;;;;;5037044;28;20028;-71
2021/08/13 11:01:03;;;;;;;8.88;4.95;;;31.90;66.80;;;;;;5040717;28;20083;-72
2021/08/13 11:03:28;;;;;;;15.80;5.28;;;31.90;66.90;;;;;;5057405;28;20333;-71
2021/08/13 11:05:56;;;;;;;10.95;5.32;;;31.40;68.80;;;;;;5043404;28;20028;-71
2021/08/13 11:08:23;;;;;;;10.45;5.93;;;30.80;69.20;;;;;;5048830;28;20312;-71
2021/08/13 11:10:48;;;;;;;8.57;5.20;;;30.80;67.20;;;;;;5045129;28;20323;-71
2021/08/13 11:13:18;;;;;;;8.40;4.70;;;30.50;69.40;;;;;;5044896;28;20024;-71
2021/08/13 11:15:45;;;;;;;10.98;5.20;;;30.70;69.70;;;;;;5058158;28;20032;-71
2021/08/13 11:18:28;;;;;;;12.93;5.47;;;31.30;68.30;;;;;;5056352;28;20436;-71
2021/08/13 11:20:54;;;;;;;9.90;5.50;;;31.90;67.10;;;;;;5058039;28;20021;-71
2021/08/13 11:23:19;;;;;;;10.95;5.47;;;32.30;65.70;;;;;;5050033;28;20036;-72
2021/08/13 11:25:47;;;;;;;11.55;5.25;;;32.50;65.00;;;;;;5036922;28;20030;-70
2021/08/13 11:28:17;;;;;;;9.45;5.93;;;32.30;64.40;;;;;;5037830;28;20068;-71
2021/08/13 11:30:43;;;;;;;8.63;5.07;;;32.20;64.60;;;;;;5037257;28;20433;-71
2021/08/13 11:33:30;;;;;;;8.98;5.38;;;32.20;64.50;;;;;;5057301;28;20487;-70
2021/08/13 11:35:59;;;;;;;12.77;5.93;;;32.60;64.10;;;;;;5056500;28;20037;-71
2021/08/13 11:38:53;;;;;;;10.80;5.97;;;32.60;63.60;;;;;;5049897;28;20024;-71
2021/08/13 11:41:22;;;;;;;8.43;5.28;;;32.00;64.40;;;;;;5055615;28;20041;-71
2021/08/13 11:43:53;;;;;;;11.10;5.35;;;32.20;65.00;;;;;;5056305;28;20021;-71
2021/08/13 11:46:23;;;;;;;13.48;6.15;;;32.40;64.50;;;;;;5055961;28;20028;-70
2021/08/13 11:48:51;;;;;;;9.75;5.13;;;32.50;64.30;;;;;;5056555;28;20115;-70
2021/08/13 11:51:18;;;;;;;9.32;5.85;;;31.60;65.40;;;;;;5055797;28;20116;-70
2021/08/13 11:53:43;;;;;;;10.27;5.25;;;31.30;66.30;;;;;;5056567;28;20020;-71
2021/08/13 11:56:40;;;;;;;10.55;5.55;;;31.60;66.30;;;;;;5056917;28;20108;-71
2021/08/13 11:59:07;;;;;;;13.63;5.85;;;31.50;64.90;;;;;;5035791;28;20041;-71
2021/08/13 12:01:53;;;;;;;13.23;6.18;;;31.00;66.90;;;;;;5039179;28;20405;-71
2021/08/13 12:04:25;;;;;;;10.70;5.90;;;31.30;66.50;;;;;;5057115;28;20078;-71
2021/08/13 12:07:03;;;;;;;8.82;5.30;;;31.30;66.30;;;;;;5048447;28;20021;-72
2021/08/13 12:09:31;;;;;;;10.98;6.00;;;31.40;65.90;;;;;;5056920;28;20025;-71
2021/08/13 12:11:59;;;;;;;9.10;5.55;;;31.50;65.00;;;;;;5052474;28;20021;-71
2021/08/13 12:14:25;;;;;;;13.70;5.85;;;31.40;65.90;;;;;;5035728;28;20109;-72
2021/08/13 12:16:55;;;;;;;12.63;5.88;;;31.40;64.80;;;;;;5056676;28;20396;-71
2021/08/13 12:19:22;;;;;;;11.93;5.30;;;31.10;65.50;;;;;;5055208;28;20024;-71
2021/08/13 12:21:59;;;;;;;10.23;5.22;;;31.30;66.10;;;;;;5056706;28;20082;-71
2021/08/13 12:24:33;;;;;;;14.23;5.22;;;31.80;65.70;;;;;;5047599;28;20021;-71
2021/08/13 12:27:02;;;;;;;12.35;5.35;;;31.90;63.70;;;;;;5036877;28;20029;-71
2021/08/13 12:29:30;;;;;;;8.10;4.68;;;32.00;64.50;;;;;;5036426;28;20407;-71
2021/08/13 12:32:01;;;;;;;13.25;5.75;;;31.80;65.00;;;;;;5036575;28;20410;-71
2021/08/13 12:34:28;;;;;;;11.15;5.18;;;31.70;65.20;;;;;;5047846;28;20041;-71
2021/08/13 12:37:11;;;;;;;13.68;5.63;;;31.60;65.30;;;;;;5036507;28;20029;-72
2021/08/13 12:39:45;;;;;;;12.07;5.90;;;31.40;64.40;;;;;;5037688;28;20029;-71
2021/08/13 12:42:14;;;;;;;11.18;5.57;;;30.60;66.70;;;;;;5036666;28;20033;-72
2021/08/13 12:44:44;;;;;;;9.10;5.22;;;30.80;66.80;;;;;;5053028;28;20102;-71
2021/08/13 12:47:10;;;;;;;17.75;6.88;;;31.00;66.10;;;;;;5056507;28;20025;-71